sensor_id;sensor_type;location;lat;lon;timestamp;pressure;altitude;pressure_sealevel;temperature;humidity
11314;BME280;5712;48.858;9.206;2022-11-15T00:01:52;97911.06;;;9.79;100.00
11314;BME280;5712;48.858;9.206;2022-11-15T00:04:18;97907.38;;;9.82;100.00
11314;BME280;5712;48.858;9.206;2022-11-15T00:06:46;97902.84;;;9.84;100.00
11314;BME280;5712;48.858;9.206;2022-11-15T00:09:13;97900.94;;;9.86;100.00
11314;BME280;5712;48.858;9.206;2022-11-15T00:11:39;97900.94;;;9.86;100.00
11314;BME280;5712;48.858;9.206;2022-11-15T00:14:06;97897.34;;;9.87;100.00
11314;BME280;5712;48.858;9.206;2022-11-15T00:16:33;97903.59;;;9.86;100.00
11314;BME280;5712;48.858;9.206;2022-11-15T00:18:59;97905.38;;;9.85;100.00
11314;BME280;5712;48.858;9.206;2022-11-15T00:21:26;97899.25;;;9.85;100.00
11314;BME280;5712;48.858;9.206;2022-11-15T00:23:54;97903.69;;;9.84;100.00
11314;BME280;5712;48.858;9.206;2022-11-15T00:26:20;97910.78;;;9.84;100.00
11314;BME280;5712;48.858;9.206;2022-11-15T00:28:47;97907.28;;;9.83;100.00
11314;BME280;5712;48.858;9.206;2022-11-15T00:31:15;97902.97;;;9.82;100.00
11314;BME280;5712;48.858;9.206;2022-11-15T00:33:43;97898.50;;;9.83;100.00
11314;BME280;5712;48.858;9.206;2022-11-15T00:36:09;97901.16;;;9.83;100.00
11314;BME280;5712;48.858;9.206;2022-11-15T00:38:39;97898.41;;;9.84;100.00
11314;BME280;5712;48.858;9.206;2022-11-15T00:41:07;97897.56;;;9.84;100.00
11314;BME280;5712;48.858;9.206;2022-11-15T00:43:34;97888.72;;;9.85;100.00
11314;BME280;5712;48.858;9.206;2022-11-15T00:46:00;97891.53;;;9.82;100.00
11314;BME280;5712;48.858;9.206;2022-11-15T00:48:28;97887.66;;;9.75;100.00
11314;BME280;5712;48.858;9.206;2022-11-15T00:50:55;97884.47;;;9.70;100.00
11314;BME280;5712;48.858;9.206;2022-11-15T00:53:21;97891.13;;;9.63;100.00
11314;BME280;5712;48.858;9.206;2022-11-15T00:55:48;97889.97;;;9.54;100.00
11314;BME280;5712;48.858;9.206;2022-11-15T00:58:16;97900.13;;;9.48;100.00
11314;BME280;5712;48.858;9.206;2022-11-15T01:00:42;97904.09;;;9.41;100.00
11314;BME280;5712;48.858;9.206;2022-11-15T01:03:09;97895.44;;;9.39;100.00
11314;BME280;5712;48.858;9.206;2022-11-15T01:05:36;97896.81;;;9.32;100.00
11314;BME280;5712;48.858;9.206;2022-11-15T01:08:03;97891.25;;;9.24;100.00
11314;BME280;5712;48.858;9.206;2022-11-15T01:10:30;97893.75;;;9.13;100.00
11314;BME280;5712;48.858;9.206;2022-11-15T01:12:57;97888.88;;;9.07;100.00
11314;BME280;5712;48.858;9.206;2022-11-15T01:15:25;97884.22;;;8.98;100.00
11314;BME280;5712;48.858;9.206;2022-11-15T01:17:51;97894.03;;;8.96;100.00
11314;BME280;5712;48.858;9.206;2022-11-15T01:20:18;97892.84;;;8.87;100.00
11314;BME280;5712;48.858;9.206;2022-11-15T01:22:45;97885.44;;;8.80;100.00
11314;BME280;5712;48.858;9.206;2022-11-15T01:25:11;97896.91;;;8.66;100.00
11314;BME280;5712;48.858;9.206;2022-11-15T01:27:38;97896.09;;;8.52;100.00
11314;BME280;5712;48.858;9.206;2022-11-15T01:30:06;97896.28;;;8.49;100.00
11314;BME280;5712;48.858;9.206;2022-11-15T01:32:34;97903.66;;;8.44;100.00
11314;BME280;5712;48.858;9.206;2022-11-15T01:35:01;97897.91;;;8.37;100.00
11314;BME280;5712;48.858;9.206;2022-11-15T01:37:28;97901.81;;;8.32;100.00
11314;BME280;5712;48.858;9.206;2022-11-15T01:39:54;97891.09;;;8.21;100.00
11314;BME280;5712;48.858;9.206;2022-11-15T01:42:21;97896.47;;;8.05;100.00
11314;BME280;5712;48.858;9.206;2022-11-15T01:44:49;97893.53;;;8.10;100.00
11314;BME280;5712;48.858;9.206;2022-11-15T01:47:19;97898.97;;;8.07;100.00
11314;BME280;5712;48.858;9.206;2022-11-15T01:49:53;97893.91;;;8.04;100.00
11314;BME280;5712;48.858;9.206;2022-11-15T01:52:24;97903.53;;;7.91;100.00
11314;BME280;5712;48.858;9.206;2022-11-15T01:54:55;97897.69;;;7.86;100.00
11314;BME280;5712;48.858;9.206;2022-11-15T01:57:23;97899.59;;;7.84;100.00
11314;BME280;5712;48.858;9.206;2022-11-15T01:59:49;97888.28;;;7.82;100.00
11314;BME280;5712;48.858;9.206;2022-11-15T02:02:16;97891.50;;;7.87;100.00
11314;BME280;5712;48.858;9.206;2022-11-15T02:04:45;97878.50;;;7.98;100.00
11314;BME280;5712;48.858;9.206;2022-11-15T02:07:16;97877.91;;;8.07;100.00
11314;BME280;5712;48.858;9.206;2022-11-15T02:09:44;97877.16;;;8.19;100.00
11314;BME280;5712;48.858;9.206;2022-11-15T02:12:13;97872.28;;;8.27;100.00
11314;BME280;5712;48.858;9.206;2022-11-15T02:14:43;97865.28;;;8.40;100.00
11314;BME280;5712;48.858;9.206;2022-11-15T02:17:29;97857.53;;;8.51;100.00
11314;BME280;5712;48.858;9.206;2022-11-15T02:20:20;97844.69;;;8.59;100.00
11314;BME280;5712;48.858;9.206;2022-11-15T02:25:57;97829.59;;;8.75;100.00
11314;BME280;5712;48.858;9.206;2022-11-15T02:28:53;97827.47;;;8.80;100.00
11314;BME280;5712;48.858;9.206;2022-11-15T02:31:28;97824.41;;;8.86;100.00
11314;BME280;5712;48.858;9.206;2022-11-15T02:34:05;97827.50;;;8.92;100.00
11314;BME280;5712;48.858;9.206;2022-11-15T02:36:40;97821.91;;;8.97;100.00
11314;BME280;5712;48.858;9.206;2022-11-15T02:39:13;97817.25;;;9.00;100.00
11314;BME280;5712;48.858;9.206;2022-11-15T02:41:49;97814.44;;;9.03;100.00
11314;BME280;5712;48.858;9.206;2022-11-15T02:44:22;97802.09;;;9.04;100.00
11314;BME280;5712;48.858;9.206;2022-11-15T02:46:52;97804.94;;;9.01;100.00
11314;BME280;5712;48.858;9.206;2022-11-15T02:49:40;97811.69;;;8.92;100.00
11314;BME280;5712;48.858;9.206;2022-11-15T02:52:07;97819.03;;;8.87;100.00
11314;BME280;5712;48.858;9.206;2022-11-15T02:54:34;97816.72;;;8.83;100.00
11314;BME280;5712;48.858;9.206;2022-11-15T02:57:02;97821.03;;;8.84;100.00
11314;BME280;5712;48.858;9.206;2022-11-15T03:02:42;97808.91;;;8.69;100.00
11314;BME280;5712;48.858;9.206;2022-11-15T03:05:21;97807.63;;;8.62;100.00
11314;BME280;5712;48.858;9.206;2022-11-15T03:07:54;97818.34;;;8.59;100.00
11314;BME280;5712;48.858;9.206;2022-11-15T03:10:29;97816.47;;;8.61;100.00
11314;BME280;5712;48.858;9.206;2022-11-15T03:13:02;97817.41;;;8.60;100.00
11314;BME280;5712;48.858;9.206;2022-11-15T03:15:37;97804.47;;;8.57;100.00
11314;BME280;5712;48.858;9.206;2022-11-15T03:18:12;97809.59;;;8.46;100.00
11314;BME280;5712;48.858;9.206;2022-11-15T03:20:42;97801.94;;;8.29;100.00
11314;BME280;5712;48.858;9.206;2022-11-15T03:23:10;97811.22;;;8.08;100.00
11314;BME280;5712;48.858;9.206;2022-11-15T03:25:41;97815.00;;;7.90;100.00
11314;BME280;5712;48.858;9.206;2022-11-15T03:28:15;97809.09;;;7.72;100.00
11314;BME280;5712;48.858;9.206;2022-11-15T03:30:44;97808.84;;;7.63;100.00
11314;BME280;5712;48.858;9.206;2022-11-15T03:33:14;97807.75;;;7.53;100.00
11314;BME280;5712;48.858;9.206;2022-11-15T03:35:44;97813.47;;;7.45;100.00
11314;BME280;5712;48.858;9.206;2022-11-15T03:38:15;97815.44;;;7.42;100.00
11314;BME280;5712;48.858;9.206;2022-11-15T03:40:48;97815.63;;;7.39;100.00
11314;BME280;5712;48.858;9.206;2022-11-15T03:43:24;97815.81;;;7.36;100.00
11314;BME280;5712;48.858;9.206;2022-11-15T03:45:57;97820.13;;;7.37;100.00
11314;BME280;5712;48.858;9.206;2022-11-15T03:48:32;97808.69;;;7.38;100.00
11314;BME280;5712;48.858;9.206;2022-11-15T03:50:59;97812.81;;;7.42;100.00
11314;BME280;5712;48.858;9.206;2022-11-15T03:53:27;97797.13;;;7.40;100.00
11314;BME280;5712;48.858;9.206;2022-11-15T03:55:55;97792.53;;;7.44;100.00
11314;BME280;5712;48.858;9.206;2022-11-15T03:58:22;97787.09;;;7.47;100.00
11314;BME280;5712;48.858;9.206;2022-11-15T04:00:49;97784.06;;;7.53;100.00
11314;BME280;5712;48.858;9.206;2022-11-15T04:03:15;97781.44;;;7.53;100.00
11314;BME280;5712;48.858;9.206;2022-11-15T04:05:43;97788.00;;;7.60;100.00
11314;BME280;5712;48.858;9.206;2022-11-15T04:08:10;97784.50;;;7.73;100.00
11314;BME280;5712;48.858;9.206;2022-11-15T04:10:37;97782.66;;;7.88;100.00
11314;BME280;5712;48.858;9.206;2022-11-15T04:13:03;97777.47;;;8.00;100.00
11314;BME280;5712;48.858;9.206;2022-11-15T04:15:30;97781.09;;;8.12;100.00
11314;BME280;5712;48.858;9.206;2022-11-15T04:17:57;97779.69;;;8.20;100.00
11314;BME280;5712;48.858;9.206;2022-11-15T04:20:25;97784.56;;;8.26;100.00
11314;BME280;5712;48.858;9.206;2022-11-15T04:23:12;97781.41;;;8.34;100.00
11314;BME280;5712;48.858;9.206;2022-11-15T04:25:59;97770.59;;;8.38;100.00
11314;BME280;5712;48.858;9.206;2022-11-15T04:28:26;97766.91;;;8.41;100.00
11314;BME280;5712;48.858;9.206;2022-11-15T04:30:53;97763.31;;;8.42;100.00
11314;BME280;5712;48.858;9.206;2022-11-15T04:33:20;97761.53;;;8.42;100.00
11314;BME280;5712;48.858;9.206;2022-11-15T04:35:47;97765.00;;;8.43;100.00
11314;BME280;5712;48.858;9.206;2022-11-15T04:38:29;97761.44;;;8.44;100.00
11314;BME280;5712;48.858;9.206;2022-11-15T04:40:56;97771.13;;;8.43;100.00
11314;BME280;5712;48.858;9.206;2022-11-15T04:43:23;97763.13;;;8.45;100.00
11314;BME280;5712;48.858;9.206;2022-11-15T04:45:49;97755.22;;;8.45;100.00
11314;BME280;5712;48.858;9.206;2022-11-15T04:48:16;97749.84;;;8.46;100.00
11314;BME280;5712;48.858;9.206;2022-11-15T04:50:43;97752.38;;;8.48;100.00
11314;BME280;5712;48.858;9.206;2022-11-15T04:53:09;97749.19;;;8.43;100.00
11314;BME280;5712;48.858;9.206;2022-11-15T04:55:37;97749.59;;;8.37;100.00
11314;BME280;5712;48.858;9.206;2022-11-15T04:58:04;97750.00;;;8.31;100.00
11314;BME280;5712;48.858;9.206;2022-11-15T05:00:30;97750.41;;;8.25;100.00
11314;BME280;5712;48.858;9.206;2022-11-15T05:02:57;97749.97;;;8.18;100.00
11314;BME280;5712;48.858;9.206;2022-11-15T05:05:41;97742.22;;;8.03;100.00
11314;BME280;5712;48.858;9.206;2022-11-15T05:08:08;97742.28;;;7.89;100.00
11314;BME280;5712;48.858;9.206;2022-11-15T05:10:36;97751.78;;;7.77;100.00
11314;BME280;5712;48.858;9.206;2022-11-15T05:13:03;97742.34;;;7.61;100.00
11314;BME280;5712;48.858;9.206;2022-11-15T05:15:29;97748.94;;;7.54;100.00
11314;BME280;5712;48.858;9.206;2022-11-15T05:17:59;97748.56;;;7.46;100.00
11314;BME280;5712;48.858;9.206;2022-11-15T05:20:26;97740.97;;;7.41;100.00
11314;BME280;5712;48.858;9.206;2022-11-15T05:22:53;97741.47;;;7.34;100.00
11314;BME280;5712;48.858;9.206;2022-11-15T05:25:20;97739.22;;;7.28;100.00
11314;BME280;5712;48.858;9.206;2022-11-15T05:27:48;97740.25;;;7.26;100.00
11314;BME280;5712;48.858;9.206;2022-11-15T05:30:15;97741.19;;;7.24;100.00
11314;BME280;5712;48.858;9.206;2022-11-15T05:32:42;97742.25;;;7.22;100.00
11314;BME280;5712;48.858;9.206;2022-11-15T05:35:12;97741.56;;;7.18;100.00
11314;BME280;5712;48.858;9.206;2022-11-15T05:37:40;97743.28;;;7.20;100.00
11314;BME280;5712;48.858;9.206;2022-11-15T05:40:08;97737.06;;;7.21;100.00
11314;BME280;5712;48.858;9.206;2022-11-15T05:42:34;97735.19;;;7.22;100.00
11314;BME280;5712;48.858;9.206;2022-11-15T05:45:05;97732.81;;;7.32;100.00
11314;BME280;5712;48.858;9.206;2022-11-15T05:47:33;97726.88;;;7.42;100.00
11314;BME280;5712;48.858;9.206;2022-11-15T05:50:01;97723.59;;;7.53;100.00
11314;BME280;5712;48.858;9.206;2022-11-15T05:52:30;97730.88;;;7.62;100.00
11314;BME280;5712;48.858;9.206;2022-11-15T05:54:58;97724.41;;;7.67;100.00
11314;BME280;5712;48.858;9.206;2022-11-15T05:57:25;97721.28;;;7.75;100.00
11314;BME280;5712;48.858;9.206;2022-11-15T05:59:51;97726.34;;;7.78;100.00
11314;BME280;5712;48.858;9.206;2022-11-15T06:02:21;97727.09;;;7.80;100.00
11314;BME280;5712;48.858;9.206;2022-11-15T06:04:48;97724.34;;;7.81;100.00
11314;BME280;5712;48.858;9.206;2022-11-15T06:07:14;97721.81;;;7.80;100.00
11314;BME280;5712;48.858;9.206;2022-11-15T06:09:41;97722.56;;;7.82;100.00
11314;BME280;5712;48.858;9.206;2022-11-15T06:12:08;97722.56;;;7.82;100.00
11314;BME280;5712;48.858;9.206;2022-11-15T06:14:34;97726.91;;;7.83;100.00
11314;BME280;5712;48.858;9.206;2022-11-15T06:17:01;97720.56;;;7.85;100.00
11314;BME280;5712;48.858;9.206;2022-11-15T06:19:29;97730.66;;;7.79;100.00
11314;BME280;5712;48.858;9.206;2022-11-15T06:21:58;97725.00;;;7.85;100.00
11314;BME280;5712;48.858;9.206;2022-11-15T06:24:24;97727.25;;;7.91;100.00
11314;BME280;5712;48.858;9.206;2022-11-15T06:26:51;97723.09;;;7.87;100.00
11314;BME280;5712;48.858;9.206;2022-11-15T06:29:18;97723.31;;;7.84;100.00
11314;BME280;5712;48.858;9.206;2022-11-15T06:31:44;97720.56;;;7.85;100.00
11314;BME280;5712;48.858;9.206;2022-11-15T06:34:11;97722.56;;;7.82;100.00
11314;BME280;5712;48.858;9.206;2022-11-15T06:36:39;97720.31;;;7.76;100.00
11314;BME280;5712;48.858;9.206;2022-11-15T06:39:06;97718.84;;;7.72;100.00
11314;BME280;5712;48.858;9.206;2022-11-15T06:41:33;97717.34;;;7.68;100.00
11314;BME280;5712;48.858;9.206;2022-11-15T06:44:00;97725.53;;;7.63;100.00
11314;BME280;5712;48.858;9.206;2022-11-15T06:46:27;97721.00;;;7.65;100.00
11314;BME280;5712;48.858;9.206;2022-11-15T06:48:54;97722.44;;;7.71;100.00
11314;BME280;5712;48.858;9.206;2022-11-15T06:51:20;97727.16;;;7.78;100.00
11314;BME280;5712;48.858;9.206;2022-11-15T06:53:48;97724.34;;;7.81;100.00
11314;BME280;5712;48.858;9.206;2022-11-15T06:56:15;97733.06;;;7.82;100.00
11314;BME280;5712;48.858;9.206;2022-11-15T06:58:41;97727.38;;;7.75;100.00
11314;BME280;5712;48.858;9.206;2022-11-15T07:01:10;97738.38;;;7.68;100.00
11314;BME280;5712;48.858;9.206;2022-11-15T07:03:38;97745.16;;;7.58;100.00
11314;BME280;5712;48.858;9.206;2022-11-15T07:06:06;97746.88;;;7.59;100.00
11314;BME280;5712;48.858;9.206;2022-11-15T07:08:33;97751.19;;;7.60;100.00
11314;BME280;5712;48.858;9.206;2022-11-15T07:11:06;97758.22;;;7.59;100.00
11314;BME280;5712;48.858;9.206;2022-11-15T07:13:34;97747.91;;;7.56;100.00
11314;BME280;5712;48.858;9.206;2022-11-15T07:16:02;97750.53;;;7.56;100.00
11314;BME280;5712;48.858;9.206;2022-11-15T07:18:29;97748.47;;;7.61;100.00
11314;BME280;5712;48.858;9.206;2022-11-15T07:21:00;97751.88;;;7.76;100.00
11314;BME280;5712;48.858;9.206;2022-11-15T07:23:27;97754.03;;;7.83;100.00
11314;BME280;5712;48.858;9.206;2022-11-15T07:25:53;97750.19;;;7.89;100.00
11314;BME280;5712;48.858;9.206;2022-11-15T07:28:21;97743.03;;;7.91;100.00
11314;BME280;5712;48.858;9.206;2022-11-15T07:30:48;97743.75;;;7.93;100.00
11314;BME280;5712;48.858;9.206;2022-11-15T07:33:14;97749.66;;;7.96;100.00
11314;BME280;5712;48.858;9.206;2022-11-15T07:35:41;97743.19;;;8.02;100.00
11314;BME280;5712;48.858;9.206;2022-11-15T07:38:08;97740.88;;;8.10;100.00
11314;BME280;5712;48.858;9.206;2022-11-15T07:40:35;97738.22;;;8.24;100.00
11314;BME280;5712;48.858;9.206;2022-11-15T07:43:02;97737.22;;;8.39;100.00
11314;BME280;5712;48.858;9.206;2022-11-15T07:45:32;97726.25;;;8.57;100.00
11314;BME280;5712;48.858;9.206;2022-11-15T07:47:59;97730.09;;;8.78;100.00
11314;BME280;5712;48.858;9.206;2022-11-15T07:50:26;97714.59;;;8.99;100.00
11314;BME280;5712;48.858;9.206;2022-11-15T07:52:54;97716.78;;;9.17;100.00
11314;BME280;5712;48.858;9.206;2022-11-15T07:55:21;97707.66;;;9.34;100.00
11314;BME280;5712;48.858;9.206;2022-11-15T07:57:48;97706.59;;;9.49;100.00
11314;BME280;5712;48.858;9.206;2022-11-15T08:00:16;97702.13;;;9.62;100.00
11314;BME280;5712;48.858;9.206;2022-11-15T08:02:44;97700.38;;;9.73;100.00
11314;BME280;5712;48.858;9.206;2022-11-15T08:05:11;97697.19;;;9.81;100.00
11314;BME280;5712;48.858;9.206;2022-11-15T08:07:38;97695.69;;;9.89;100.00
11314;BME280;5712;48.858;9.206;2022-11-15T08:10:06;97692.25;;;10.00;100.00
11314;BME280;5712;48.858;9.206;2022-11-15T08:12:33;97690.66;;;10.10;100.00
11314;BME280;5712;48.858;9.206;2022-11-15T08:15:00;97681.81;;;10.22;100.00
11314;BME280;5712;48.858;9.206;2022-11-15T08:17:26;97678.13;;;10.35;100.00
11314;BME280;5712;48.858;9.206;2022-11-15T08:19:58;97668.44;;;10.47;100.00
11314;BME280;5712;48.858;9.206;2022-11-15T08:22:25;97660.66;;;10.56;100.00
11314;BME280;5712;48.858;9.206;2022-11-15T08:24:52;97656.44;;;10.54;100.00
11314;BME280;5712;48.858;9.206;2022-11-15T08:27:18;97653.19;;;10.50;100.00
11314;BME280;5712;48.858;9.206;2022-11-15T08:29:45;97653.78;;;10.43;100.00
11314;BME280;5712;48.858;9.206;2022-11-15T08:32:13;97660.38;;;10.37;100.00
11314;BME280;5712;48.858;9.206;2022-11-15T08:34:40;97657.63;;;10.39;100.00
11314;BME280;5712;48.858;9.206;2022-11-15T08:37:08;97657.16;;;10.45;100.00
11314;BME280;5712;48.858;9.206;2022-11-15T08:39:35;97645.63;;;10.57;100.00
11314;BME280;5712;48.858;9.206;2022-11-15T08:42:01;97641.34;;;10.67;100.00
11314;BME280;5712;48.858;9.206;2022-11-15T08:44:28;97628.50;;;10.73;100.00
11314;BME280;5712;48.858;9.206;2022-11-15T08:46:54;97623.31;;;10.72;100.00
11314;BME280;5712;48.858;9.206;2022-11-15T08:49:21;97625.25;;;10.70;100.00
11314;BME280;5712;48.858;9.206;2022-11-15T08:51:48;97623.78;;;10.66;100.00
11314;BME280;5712;48.858;9.206;2022-11-15T08:54:16;97616.34;;;10.71;100.00
11314;BME280;5712;48.858;9.206;2022-11-15T08:56:42;97615.88;;;10.77;100.00
11314;BME280;5712;48.858;9.206;2022-11-15T08:59:09;97611.06;;;10.93;100.00
11314;BME280;5712;48.858;9.206;2022-11-15T09:01:35;97607.94;;;11.10;100.00
11314;BME280;5712;48.858;9.206;2022-11-15T09:04:03;97597.81;;;11.26;100.00
11314;BME280;5712;48.858;9.206;2022-11-15T09:06:30;97594.66;;;11.43;100.00
11314;BME280;5712;48.858;9.206;2022-11-15T09:08:57;97584.41;;;11.60;99.38
11314;BME280;5712;48.858;9.206;2022-11-15T09:11:25;97584.97;;;11.75;97.94
11314;BME280;5712;48.858;9.206;2022-11-15T09:13:52;97581.19;;;11.88;96.21
11314;BME280;5712;48.858;9.206;2022-11-15T09:16:19;97576.19;;;11.95;95.67
11314;BME280;5712;48.858;9.206;2022-11-15T09:18:45;97575.56;;;12.02;94.84
11314;BME280;5712;48.858;9.206;2022-11-15T09:21:12;97549.53;;;12.07;92.30
11314;BME280;5712;48.858;9.206;2022-11-15T09:23:39;97550.75;;;12.24;91.72
11314;BME280;5712;48.858;9.206;2022-11-15T09:26:06;97540.53;;;12.40;90.25
11314;BME280;5712;48.858;9.206;2022-11-15T09:28:34;97547.16;;;12.55;89.76
11314;BME280;5712;48.858;9.206;2022-11-15T09:31:04;97532.56;;;12.70;88.77
11314;BME280;5712;48.858;9.206;2022-11-15T09:33:31;97531.91;;;12.77;88.39
11314;BME280;5712;48.858;9.206;2022-11-15T09:36:00;97531.38;;;12.83;87.58
11314;BME280;5712;48.858;9.206;2022-11-15T09:38:28;97530.19;;;12.97;87.18
11314;BME280;5712;48.858;9.206;2022-11-15T09:41:08;97524.34;;;13.03;86.67
11314;BME280;5712;48.858;9.206;2022-11-15T09:43:47;97526.03;;;13.04;86.28
11314;BME280;5712;48.858;9.206;2022-11-15T09:46:24;97520.72;;;13.04;86.44
11314;BME280;5712;48.858;9.206;2022-11-15T09:48:54;97521.25;;;12.98;85.98
11314;BME280;5712;48.858;9.206;2022-11-15T09:51:28;97520.56;;;12.96;84.99
11314;BME280;5712;48.858;9.206;2022-11-15T09:54:04;97522.69;;;13.02;85.71
11314;BME280;5712;48.858;9.206;2022-11-15T09:56:35;97519.88;;;13.13;86.22
11314;BME280;5712;48.858;9.206;2022-11-15T09:59:21;97501.75;;;13.27;85.12
11314;BME280;5712;48.858;9.206;2022-11-15T10:01:54;97497.59;;;13.44;84.34
11314;BME280;5712;48.858;9.206;2022-11-15T10:04:23;97498.00;;;13.58;82.99
11314;BME280;5712;48.858;9.206;2022-11-15T10:06:55;97493.09;;;13.73;83.12
11314;BME280;5712;48.858;9.206;2022-11-15T10:09:26;97484.56;;;13.88;82.51
11314;BME280;5712;48.858;9.206;2022-11-15T10:11:55;97472.97;;;13.99;81.65
11314;BME280;5712;48.858;9.206;2022-11-15T10:14:27;97474.06;;;14.06;81.52
11314;BME280;5712;48.858;9.206;2022-11-15T10:17:32;97467.34;;;14.11;81.21
11314;BME280;5712;48.858;9.206;2022-11-15T10:20:12;97484.13;;;14.12;82.79
11314;BME280;5712;48.858;9.206;2022-11-15T10:22:46;97484.13;;;14.12;83.12
11314;BME280;5712;48.858;9.206;2022-11-15T10:25:19;97476.00;;;14.13;82.87
11314;BME280;5712;48.858;9.206;2022-11-15T10:27:54;97472.50;;;14.13;82.77
11314;BME280;5712;48.858;9.206;2022-11-15T10:30:28;97468.44;;;14.09;82.62
11314;BME280;5712;48.858;9.206;2022-11-15T10:32:56;97495.31;;;14.06;84.61
11314;BME280;5712;48.858;9.206;2022-11-15T10:35:25;97484.16;;;14.02;84.84
11314;BME280;5712;48.858;9.206;2022-11-15T10:37:56;97494.22;;;13.99;85.39
11314;BME280;5712;48.858;9.206;2022-11-15T10:40:30;97483.59;;;13.99;85.08
11314;BME280;5712;48.858;9.206;2022-11-15T10:43:06;97476.03;;;13.94;84.98
11314;BME280;5712;48.858;9.206;2022-11-15T10:45:41;97471.56;;;13.95;84.58
11314;BME280;5712;48.858;9.206;2022-11-15T10:48:24;97469.91;;;13.94;83.88
11314;BME280;5712;48.858;9.206;2022-11-15T10:50:52;97459.53;;;13.91;83.63
11314;BME280;5712;48.858;9.206;2022-11-15T10:53:29;97462.50;;;13.88;83.92
11314;BME280;5712;48.858;9.206;2022-11-15T10:56:00;97460.81;;;13.87;84.48
11314;BME280;5712;48.858;9.206;2022-11-15T10:58:33;97463.75;;;13.84;84.60
11314;BME280;5712;48.858;9.206;2022-11-15T11:01:15;97453.44;;;13.81;83.83
11314;BME280;5712;48.858;9.206;2022-11-15T11:03:43;97455.91;;;13.82;84.09
11314;BME280;5712;48.858;9.206;2022-11-15T11:06:12;97451.16;;;13.86;84.02
11314;BME280;5712;48.858;9.206;2022-11-15T11:08:39;97435.09;;;13.87;83.42
11314;BME280;5712;48.858;9.206;2022-11-15T11:11:07;97448.38;;;13.87;83.85
11314;BME280;5712;48.858;9.206;2022-11-15T11:13:35;97439.56;;;13.87;83.29
11314;BME280;5712;48.858;9.206;2022-11-15T11:16:30;97429.34;;;13.82;82.89
11314;BME280;5712;48.858;9.206;2022-11-15T11:19:05;97427.56;;;13.73;82.22
11314;BME280;5712;48.858;9.206;2022-11-15T11:21:43;97435.97;;;13.69;82.69
11314;BME280;5712;48.858;9.206;2022-11-15T11:24:19;97450.38;;;13.66;83.61
11314;BME280;5712;48.858;9.206;2022-11-15T11:27:02;97455.69;;;13.66;84.28
11314;BME280;5712;48.858;9.206;2022-11-15T11:29:41;97449.53;;;13.66;84.51
11314;BME280;5712;48.858;9.206;2022-11-15T11:32:25;97441.97;;;13.71;84.62
11314;BME280;5712;48.858;9.206;2022-11-15T11:35:02;97439.03;;;13.74;84.41
11314;BME280;5712;48.858;9.206;2022-11-15T11:37:37;97440.16;;;13.81;84.37
11314;BME280;5712;48.858;9.206;2022-11-15T11:40:15;97423.47;;;13.88;84.33
11314;BME280;5712;48.858;9.206;2022-11-15T11:42:48;97425.41;;;13.96;84.36
11314;BME280;5712;48.858;9.206;2022-11-15T11:45:42;97421.19;;;14.03;83.62
11314;BME280;5712;48.858;9.206;2022-11-15T11:48:25;97406.53;;;14.08;83.44
11314;BME280;5712;48.858;9.206;2022-11-15T11:51:05;97409.41;;;14.15;83.55
11314;BME280;5712;48.858;9.206;2022-11-15T11:53:39;97396.28;;;14.23;83.07
11314;BME280;5712;48.858;9.206;2022-11-15T11:56:18;97383.78;;;14.33;82.16
11314;BME280;5712;48.858;9.206;2022-11-15T11:58:50;97374.94;;;14.42;82.08
11314;BME280;5712;48.858;9.206;2022-11-15T12:01:22;97383.28;;;14.47;82.40
11314;BME280;5712;48.858;9.206;2022-11-15T12:03:54;97391.97;;;14.49;82.72
11314;BME280;5712;48.858;9.206;2022-11-15T12:06:27;97394.47;;;14.50;83.27
11314;BME280;5712;48.858;9.206;2022-11-15T12:08:59;97404.94;;;14.52;84.39
11314;BME280;5712;48.858;9.206;2022-11-15T12:11:29;97405.66;;;14.54;85.45
11314;BME280;5712;48.858;9.206;2022-11-15T12:14:03;97384.94;;;14.57;84.64
11314;BME280;5712;48.858;9.206;2022-11-15T12:16:31;97372.03;;;14.62;82.88
11314;BME280;5712;48.858;9.206;2022-11-15T12:19:01;97369.19;;;14.64;82.66
11314;BME280;5712;48.858;9.206;2022-11-15T12:21:35;97386.81;;;14.65;84.98
11314;BME280;5712;48.858;9.206;2022-11-15T12:24:07;97388.78;;;14.63;85.16
11314;BME280;5712;48.858;9.206;2022-11-15T12:26:37;97373.16;;;14.60;83.78
11314;BME280;5712;48.858;9.206;2022-11-15T12:29:11;97380.16;;;14.61;84.53
11314;BME280;5712;48.858;9.206;2022-11-15T12:31:43;97369.19;;;14.64;84.01
11314;BME280;5712;48.858;9.206;2022-11-15T12:34:30;97370.44;;;14.69;83.61
11314;BME280;5712;48.858;9.206;2022-11-15T12:37:01;97366.31;;;14.75;83.30
11314;BME280;5712;48.858;9.206;2022-11-15T12:42:41;97368.00;;;14.76;84.28
11314;BME280;5712;48.858;9.206;2022-11-15T12:45:26;97370.25;;;14.71;84.53
11314;BME280;5712;48.858;9.206;2022-11-15T12:47:57;97371.56;;;14.67;85.03
11314;BME280;5712;48.858;9.206;2022-11-15T12:50:57;97373.97;;;14.60;86.02
11314;BME280;5712;48.858;9.206;2022-11-15T12:53:26;97355.81;;;14.56;84.69
11314;BME280;5712;48.858;9.206;2022-11-15T12:56:09;97364.53;;;14.48;84.99
11314;BME280;5712;48.858;9.206;2022-11-15T12:58:46;97369.03;;;14.48;85.72
11314;BME280;5712;48.858;9.206;2022-11-15T13:04:23;97347.75;;;14.48;84.31
11314;BME280;5712;48.858;9.206;2022-11-15T13:06:54;97338.69;;;14.41;83.56
11314;BME280;5712;48.858;9.206;2022-11-15T13:09:52;97331.31;;;14.35;84.30
11314;BME280;5712;48.858;9.206;2022-11-15T13:12:49;97339.56;;;14.32;84.68
11314;BME280;5712;48.858;9.206;2022-11-15T13:15:37;97329.25;;;14.29;84.04
11314;BME280;5712;48.858;9.206;2022-11-15T13:18:28;97338.34;;;14.26;85.07
11314;BME280;5712;48.858;9.206;2022-11-15T13:20:55;97341.97;;;14.25;85.84
11314;BME280;5712;48.858;9.206;2022-11-15T13:23:23;97338.63;;;14.23;86.58
11314;BME280;5712;48.858;9.206;2022-11-15T13:26:10;97335.84;;;14.15;86.25
11314;BME280;5712;48.858;9.206;2022-11-15T13:28:42;97327.81;;;13.98;86.34
11314;BME280;5712;48.858;9.206;2022-11-15T13:31:21;97344.63;;;13.89;88.44
11314;BME280;5712;48.858;9.206;2022-11-15T13:33:49;97345.22;;;13.83;89.55
11314;BME280;5712;48.858;9.206;2022-11-15T13:36:18;97348.31;;;13.78;89.91
11314;BME280;5712;48.858;9.206;2022-11-15T13:38:55;97349.03;;;13.71;90.28
11314;BME280;5712;48.858;9.206;2022-11-15T13:41:24;97346.66;;;13.68;90.53